Time;durP1;ratioP1;P1;durP2;ratioP2;P2;SDS_P1;SDS_P2;PMS_P1;PMS_P2;Temp;Humidity;BMP_temperature;BMP_pressure;BME280_temperature;BME280_humidity;BME280_pressure;Samples;Min_cycle;Max_cycle;Signal;HPM_P1;HPM_P2
2023/07/23 00:01:18;;;;;;;4.55;3.17;;;;;22.00;100731.00;;;;5109114;28;20673;-84
2023/07/23 00:03:45;;;;;;;4.15;3.30;;;;;22.00;100720.00;;;;5108615;28;20228;-84
2023/07/23 00:06:14;;;;;;;3.85;2.78;;;;;22.00;100715.00;;;;5110021;28;20228;-84
2023/07/23 00:08:41;;;;;;;4.35;2.70;;;;;22.00;100714.00;;;;5110242;28;20212;-84
2023/07/23 00:11:08;;;;;;;8.52;3.22;;;;;22.00;100713.00;;;;5109997;28;20244;-83
2023/07/23 00:13:36;;;;;;;3.78;2.95;;;;;22.00;100714.00;;;;5109124;28;20665;-84
2023/07/23 00:16:03;;;;;;;5.05;3.33;;;;;22.00;100710.00;;;;5109934;28;20186;-83
2023/07/23 00:18:30;;;;;;;4.22;3.35;;;;;22.00;100703.00;;;;5109589;28;20200;-84
2023/07/23 00:20:57;;;;;;;5.63;3.30;;;;;22.00;100702.00;;;;5092696;28;20214;-84
2023/07/23 00:23:26;;;;;;;3.40;3.03;;;;;22.00;100700.00;;;;5088091;28;20687;-84
2023/07/23 00:25:54;;;;;;;4.70;2.92;;;;;22.00;100695.00;;;;5088915;28;20206;-84
2023/07/23 00:28:21;;;;;;;5.25;3.78;;;;;22.00;100695.00;;;;5089338;28;20205;-84
2023/07/23 00:30:48;;;;;;;5.07;3.63;;;;;22.00;100694.00;;;;5089548;28;20229;-83
2023/07/23 00:33:16;;;;;;;5.93;3.28;;;;;22.00;100687.00;;;;5088915;28;20202;-84
2023/07/23 00:35:43;;;;;;;4.20;2.83;;;;;22.00;100685.00;;;;5088977;28;20190;-84
2023/07/23 00:38:11;;;;;;;5.78;3.35;;;;;22.00;100680.00;;;;5089721;28;20198;-83
2023/07/23 00:40:39;;;;;;;6.22;3.85;;;;;22.00;100680.00;;;;5092456;28;20197;-84
2023/07/23 00:43:07;;;;;;;3.17;2.75;;;;;22.00;100671.00;;;;5109469;28;20193;-84
2023/07/23 00:45:35;;;;;;;5.95;3.55;;;;;22.00;100672.00;;;;5108861;28;20751;-84
2023/07/23 00:48:02;;;;;;;5.45;3.58;;;;;22.00;100656.00;;;;5109364;28;20194;-83
2023/07/23 00:50:30;;;;;;;6.13;3.42;;;;;22.00;100659.00;;;;5108627;28;20222;-84
2023/07/23 00:52:57;;;;;;;6.45;3.83;;;;;22.00;100655.00;;;;5108396;28;20619;-83
2023/07/23 00:55:25;;;;;;;4.45;3.22;;;;;22.00;100644.00;;;;5088303;28;20587;-84
2023/07/23 00:57:54;;;;;;;5.07;3.80;;;;;22.00;100643.00;;;;5098361;28;20190;-83
2023/07/23 01:00:22;;;;;;;4.75;3.83;;;;;22.00;100645.00;;;;5108722;28;20582;-83
2023/07/23 01:02:49;;;;;;;5.95;4.15;;;;;22.00;100640.00;;;;5108578;28;20695;-84
2023/07/23 01:05:16;;;;;;;4.18;3.30;;;;;22.10;100640.00;;;;5108625;28;20225;-83
2023/07/23 01:07:46;;;;;;;4.05;3.53;;;;;22.00;100632.00;;;;5108739;28;20207;-83
2023/07/23 01:10:14;;;;;;;4.93;3.42;;;;;22.00;100631.00;;;;5103920;28;20236;-83
2023/07/23 01:12:42;;;;;;;5.15;3.40;;;;;22.00;100621.00;;;;5088689;28;20206;-83
2023/07/23 01:15:12;;;;;;;4.55;3.75;;;;;22.00;100619.00;;;;5088367;28;20214;-83
2023/07/23 01:17:42;;;;;;;5.65;3.80;;;;;22.00;100619.00;;;;5087365;28;20289;-84
2023/07/23 01:20:09;;;;;;;5.00;3.72;;;;;22.00;100609.00;;;;5088448;28;20202;-83
2023/07/23 01:22:39;;;;;;;5.07;3.47;;;;;22.00;100613.00;;;;5088213;28;20568;-83
2023/07/23 01:25:06;;;;;;;6.03;3.78;;;;;22.00;100610.00;;;;5088570;28;20194;-83
2023/07/23 01:27:34;;;;;;;6.43;3.65;;;;;22.00;100599.00;;;;5088442;28;20206;-83
2023/07/23 01:30:01;;;;;;;4.95;3.58;;;;;22.00;100604.00;;;;5088350;28;20233;-83
2023/07/23 01:32:28;;;;;;;5.07;3.58;;;;;22.00;100600.00;;;;5088066;28;20190;-83
2023/07/23 01:34:57;;;;;;;7.85;3.83;;;;;22.00;100593.00;;;;5088024;28;20186;-83
2023/07/23 01:37:25;;;;;;;8.27;4.00;;;;;22.00;100589.00;;;;5086877;28;20217;-83
2023/07/23 01:39:54;;;;;;;5.00;3.70;;;;;22.00;100588.00;;;;5087833;28;20198;-83
2023/07/23 01:42:21;;;;;;;4.20;3.25;;;;;22.00;100586.00;;;;5105818;28;20217;-83
2023/07/23 01:44:49;;;;;;;4.13;3.53;;;;;22.00;100579.00;;;;5107651;28;20206;-83
2023/07/23 01:47:16;;;;;;;4.68;3.50;;;;;22.00;100580.00;;;;5108052;28;20204;-84
2023/07/23 01:49:43;;;;;;;5.38;3.92;;;;;22.00;100582.00;;;;5108620;28;20204;-83
2023/07/23 01:52:10;;;;;;;5.35;4.10;;;;;22.00;100578.00;;;;5108260;28;20201;-83
2023/07/23 01:54:38;;;;;;;4.20;3.17;;;;;22.00;100579.00;;;;5108403;28;20666;-83
2023/07/23 01:57:07;;;;;;;4.10;3.17;;;;;22.00;100571.00;;;;5108389;28;20699;-83
2023/07/23 01:59:34;;;;;;;4.85;3.55;;;;;22.00;100562.00;;;;5107053;28;20478;-83
2023/07/23 02:02:04;;;;;;;4.10;3.33;;;;;22.00;100560.00;;;;5107867;28;20206;-83
2023/07/23 02:04:31;;;;;;;3.92;3.05;;;;;22.00;100556.00;;;;5107698;28;20270;-83
2023/07/23 02:06:58;;;;;;;3.85;3.28;;;;;22.00;100549.00;;;;5107492;28;20237;-83
2023/07/23 02:09:26;;;;;;;4.75;3.45;;;;;22.00;100548.00;;;;5108036;28;20202;-83
2023/07/23 02:11:53;;;;;;;3.55;3.13;;;;;22.00;100544.00;;;;5107360;28;20597;-83
2023/07/23 02:14:21;;;;;;;4.70;3.13;;;;;22.00;100541.00;;;;5108021;28;20198;-83
2023/07/23 02:16:49;;;;;;;6.03;4.30;;;;;22.00;100533.00;;;;5108333;28;20198;-83
2023/07/23 02:19:16;;;;;;;4.70;3.30;;;;;22.00;100527.00;;;;5095788;28;20210;-83
2023/07/23 02:21:43;;;;;;;6.30;3.55;;;;;22.00;100526.00;;;;5090528;28;20225;-83
2023/07/23 02:24:10;;;;;;;6.65;4.40;;;;;22.00;100526.00;;;;5106453;28;20209;-83
2023/07/23 02:26:38;;;;;;;3.80;3.13;;;;;22.00;100524.00;;;;5107930;28;20213;-83
2023/07/23 02:29:05;;;;;;;4.53;3.38;;;;;22.00;100523.00;;;;5107943;28;20205;-83
2023/07/23 02:31:34;;;;;;;4.88;3.40;;;;;22.00;100519.00;;;;5107470;28;20589;-83
2023/07/23 02:34:01;;;;;;;5.18;3.55;;;;;22.00;100511.00;;;;5108879;28;20194;-83
2023/07/23 02:36:28;;;;;;;6.00;3.50;;;;;22.00;100502.00;;;;5106571;28;20669;-84
2023/07/23 02:38:56;;;;;;;6.63;4.03;;;;;22.00;100507.00;;;;5108262;28;20193;-83
2023/07/23 02:41:23;;;;;;;4.50;3.58;;;;;22.00;100488.00;;;;5107403;28;20202;-83
2023/07/23 02:43:50;;;;;;;10.05;3.60;;;;;22.00;100491.00;;;;5107913;28;20448;-83
2023/07/23 02:46:18;;;;;;;5.00;3.97;;;;;22.00;100497.00;;;;5107907;28;20283;-83
2023/07/23 02:48:46;;;;;;;4.47;3.78;;;;;22.00;100487.00;;;;5107728;28;20550;-83
2023/07/23 02:51:13;;;;;;;6.43;3.97;;;;;22.00;100482.00;;;;5111083;28;20596;-83
2023/07/23 02:53:41;;;;;;;5.07;4.22;;;;;22.00;100482.00;;;;5110221;28;20213;-83
2023/07/23 02:56:08;;;;;;;5.43;4.20;;;;;22.00;100480.00;;;;5111361;28;20198;-83
2023/07/23 02:58:35;;;;;;;5.05;3.63;;;;;22.00;100482.00;;;;5111141;28;20202;-83
2023/07/23 03:01:02;;;;;;;4.40;3.28;;;;;22.00;100484.00;;;;5110520;28;20201;-83
2023/07/23 03:03:30;;;;;;;4.43;3.70;;;;;22.00;100470.00;;;;5110808;28;20198;-83
2023/07/23 03:05:58;;;;;;;4.32;3.35;;;;;22.00;100468.00;;;;5111427;28;20232;-83
2023/07/23 03:08:26;;;;;;;6.00;4.13;;;;;22.00;100461.00;;;;5110401;28;20200;-83
2023/07/23 03:10:53;;;;;;;5.78;3.83;;;;;22.00;100459.00;;;;5093844;28;20237;-83
2023/07/23 03:13:20;;;;;;;5.55;3.40;;;;;21.90;100455.00;;;;5090607;28;20201;-83
2023/07/23 03:15:47;;;;;;;4.85;3.70;;;;;22.00;100450.00;;;;5090306;28;20205;-83
2023/07/23 03:18:15;;;;;;;5.93;3.72;;;;;22.00;100447.00;;;;5090406;28;20206;-83
2023/07/23 03:20:42;;;;;;;3.97;3.58;;;;;21.90;100443.00;;;;5090529;28;20210;-83
2023/07/23 03:23:10;;;;;;;5.18;3.30;;;;;21.90;100438.00;;;;5090233;28;20194;-82
2023/07/23 03:25:38;;;;;;;3.60;3.00;;;;;21.90;100442.00;;;;5090332;28;20198;-83
2023/07/23 03:28:05;;;;;;;4.70;3.38;;;;;21.90;100435.00;;;;5091384;28;20587;-83
2023/07/23 03:30:32;;;;;;;4.53;3.72;;;;;21.90;100434.00;;;;5090040;28;20214;-83
2023/07/23 03:33:00;;;;;;;4.55;3.85;;;;;21.90;100430.00;;;;5090825;28;20642;-83
2023/07/23 03:35:27;;;;;;;5.57;3.60;;;;;21.90;100428.00;;;;5090112;28;20190;-83
2023/07/23 03:37:55;;;;;;;4.70;3.60;;;;;21.90;100432.00;;;;5090628;28;20199;-83
2023/07/23 03:40:23;;;;;;;4.50;3.15;;;;;21.90;100428.00;;;;5091300;28;20217;-83
2023/07/23 03:42:50;;;;;;;5.78;3.58;;;;;21.90;100420.00;;;;5110017;28;20197;-83
2023/07/23 03:45:18;;;;;;;4.32;3.10;;;;;21.90;100418.00;;;;5089044;28;20202;-83
2023/07/23 03:47:45;;;;;;;7.03;3.17;;;;;21.90;100417.00;;;;5090285;28;20726;-82
2023/07/23 03:50:12;;;;;;;5.10;3.15;;;;;21.90;100415.00;;;;5090629;28;20201;-83
2023/07/23 03:52:39;;;;;;;3.83;3.30;;;;;21.90;100418.00;;;;5090064;28;20226;-82
2023/07/23 03:55:07;;;;;;;4.03;3.50;;;;;21.90;100414.00;;;;5090106;28;20323;-82
2023/07/23 03:57:36;;;;;;;6.38;3.30;;;;;21.90;100411.00;;;;5089352;28;20210;-82
2023/07/23 04:00:03;;;;;;;4.03;3.50;;;;;21.90;100418.00;;;;5097167;28;20196;-83
2023/07/23 04:02:30;;;;;;;4.40;3.45;;;;;21.90;100417.00;;;;5088531;28;20302;-83
2023/07/23 04:04:58;;;;;;;4.13;3.72;;;;;21.90;100415.00;;;;5089453;28;20221;-82
2023/07/23 04:07:25;;;;;;;4.32;3.85;;;;;21.90;100418.00;;;;5089628;28;20209;-82
2023/07/23 04:09:54;;;;;;;7.40;4.18;;;;;21.90;100416.00;;;;5101148;28;20581;-82
2023/07/23 04:12:22;;;;;;;4.28;3.47;;;;;21.90;100415.00;;;;5109722;28;20229;-82
2023/07/23 04:14:51;;;;;;;5.15;3.45;;;;;21.80;100408.00;;;;5110594;28;20230;-83
2023/07/23 04:17:18;;;;;;;4.05;2.95;;;;;21.90;100412.00;;;;5105697;28;20221;-83
2023/07/23 04:19:46;;;;;;;4.53;3.42;;;;;21.90;100414.00;;;;5089362;28;20202;-82
2023/07/23 04:22:13;;;;;;;6.25;4.00;;;;;21.90;100413.00;;;;5089098;28;20206;-82
2023/07/23 04:24:40;;;;;;;4.57;3.25;;;;;21.90;100407.00;;;;5089110;28;20660;-82
2023/07/23 04:27:07;;;;;;;7.20;3.50;;;;;21.90;100413.00;;;;5089482;28;20194;-82
2023/07/23 04:29:35;;;;;;;5.35;3.45;;;;;21.90;100406.00;;;;5088093;28;20201;-83
2023/07/23 04:32:03;;;;;;;4.07;2.90;;;;;21.80;100412.00;;;;5089707;28;20237;-82
2023/07/23 04:34:31;;;;;;;6.70;3.13;;;;;21.90;100408.00;;;;5089903;28;20237;-83
2023/07/23 04:36:58;;;;;;;5.18;3.08;;;;;21.80;100403.00;;;;5088887;28;20190;-82
2023/07/23 04:39:25;;;;;;;4.53;2.83;;;;;21.80;100407.00;;;;5089698;28;20190;-83
2023/07/23 04:41:52;;;;;;;4.35;2.95;;;;;21.80;100409.00;;;;5102707;28;20209;-83
2023/07/23 04:44:20;;;;;;;6.88;3.20;;;;;21.80;100407.00;;;;5108815;28;20213;-82
2023/07/23 04:46:47;;;;;;;3.20;2.47;;;;;21.80;100400.00;;;;5109667;28;20202;-82
2023/07/23 04:49:16;;;;;;;5.68;2.67;;;;;21.90;100408.00;;;;5109514;28;20202;-82
2023/07/23 04:51:43;;;;;;;6.10;2.97;;;;;21.90;100400.00;;;;5108420;28;20236;-82
2023/07/23 04:54:10;;;;;;;3.53;3.00;;;;;21.90;100398.00;;;;5109067;28;20197;-82
2023/07/23 04:56:37;;;;;;;4.18;3.03;;;;;21.90;100403.00;;;;5108930;28;20202;-82
2023/07/23 04:59:05;;;;;;;5.00;2.83;;;;;21.90;100401.00;;;;5108492;28;20205;-83
2023/07/23 05:01:32;;;;;;;5.13;3.10;;;;;21.90;100399.00;;;;5109264;28;20411;-80
2023/07/23 05:04:00;;;;;;;6.00;3.15;;;;;21.90;100395.00;;;;5109521;28;20222;-81
2023/07/23 05:06:28;;;;;;;4.00;2.90;;;;;21.90;100397.00;;;;5108318;28;20240;-81
2023/07/23 05:08:55;;;;;;;4.00;2.83;;;;;21.90;100400.00;;;;5103525;28;20201;-81
2023/07/23 05:11:23;;;;;;;5.45;2.78;;;;;21.90;100396.00;;;;5109068;28;20240;-80
2023/07/23 05:13:50;;;;;;;3.80;2.45;;;;;21.90;100390.00;;;;5108452;28;20199;-81
2023/07/23 05:16:17;;;;;;;5.97;2.72;;;;;21.90;100399.00;;;;5108472;28;20193;-80
2023/07/23 05:18:44;;;;;;;4.63;2.55;;;;;21.90;100393.00;;;;5108290;28;20197;-81
2023/07/23 05:21:12;;;;;;;5.43;3.47;;;;;21.90;100403.00;;;;5108926;28;20694;-81
2023/07/23 05:23:41;;;;;;;4.22;3.05;;;;;21.90;100396.00;;;;5108575;28;20216;-81
2023/07/23 05:26:09;;;;;;;4.18;2.92;;;;;21.90;100400.00;;;;5098182;28;20271;-81
2023/07/23 05:28:36;;;;;;;4.18;2.88;;;;;21.90;100402.00;;;;5087710;28;20680;-81
2023/07/23 05:31:03;;;;;;;5.20;3.67;;;;;21.90;100400.00;;;;5088169;28;20194;-81
2023/07/23 05:33:31;;;;;;;4.05;3.15;;;;;21.90;100398.00;;;;5087889;28;20213;-81
2023/07/23 05:35:58;;;;;;;5.78;3.22;;;;;21.90;100404.00;;;;5088371;28;20198;-81
2023/07/23 05:38:26;;;;;;;4.93;3.13;;;;;21.90;100400.00;;;;5088157;28;20186;-81
2023/07/23 05:40:56;;;;;;;4.93;3.13;;;;;21.90;100401.00;;;;5093677;28;20208;-81
2023/07/23 05:43:23;;;;;;;5.53;2.83;;;;;21.90;100404.00;;;;5108022;28;20202;-81
2023/07/23 05:45:50;;;;;;;6.65;3.67;;;;;21.90;100402.00;;;;5108561;28;20527;-81
2023/07/23 05:48:18;;;;;;;3.45;2.60;;;;;21.90;100405.00;;;;5108390;28;20658;-81
2023/07/23 05:50:45;;;;;;;4.88;3.50;;;;;21.90;100406.00;;;;5108628;28;20666;-81
2023/07/23 05:53:12;;;;;;;4.57;2.92;;;;;21.90;100398.00;;;;5107580;28;20231;-81
2023/07/23 05:55:40;;;;;;;6.63;4.10;;;;;21.90;100397.00;;;;5108581;28;20205;-81
2023/07/23 05:58:09;;;;;;;4.97;2.92;;;;;21.90;100409.00;;;;5108191;28;20702;-81
2023/07/23 06:00:36;;;;;;;8.75;3.65;;;;;21.90;100402.00;;;;5107006;28;20217;-81
2023/07/23 06:03:03;;;;;;;4.68;2.80;;;;;21.90;100408.00;;;;5108403;28;20194;-81
2023/07/23 06:05:31;;;;;;;4.07;2.88;;;;;21.90;100394.00;;;;5107080;28;20240;-82
2023/07/23 06:07:58;;;;;;;3.80;2.72;;;;;21.90;100397.00;;;;5107895;28;20197;-81
2023/07/23 06:10:25;;;;;;;4.43;2.85;;;;;21.90;100406.00;;;;5107478;28;20197;-81
2023/07/23 06:12:52;;;;;;;3.60;2.78;;;;;21.90;100399.00;;;;5107552;28;20610;-81
2023/07/23 06:15:21;;;;;;;3.65;2.63;;;;;21.90;100403.00;;;;5108001;28;20204;-81
2023/07/23 06:17:48;;;;;;;4.00;2.85;;;;;21.90;100393.00;;;;5091810;28;20209;-81
2023/07/23 06:20:16;;;;;;;4.47;3.22;;;;;21.90;100400.00;;;;5087699;28;20292;-81
2023/07/23 06:22:43;;;;;;;4.80;3.15;;;;;21.90;100407.00;;;;5088048;28;20205;-82
2023/07/23 06:25:11;;;;;;;4.43;2.97;;;;;21.80;100395.00;;;;5089852;28;20202;-81
2023/07/23 06:27:38;;;;;;;3.25;2.45;;;;;21.80;100397.00;;;;5091118;28;20201;-80
2023/07/23 06:30:06;;;;;;;4.47;3.25;;;;;21.80;100399.00;;;;5091728;28;20194;-81
2023/07/23 06:32:35;;;;;;;6.38;2.97;;;;;21.80;100403.00;;;;5090781;28;20707;-81
2023/07/23 06:35:04;;;;;;;4.55;2.78;;;;;21.80;100401.00;;;;5092260;28;20209;-82
2023/07/23 06:37:32;;;;;;;3.40;2.47;;;;;21.80;100412.00;;;;5090205;28;20206;-80
2023/07/23 06:39:59;;;;;;;4.05;2.95;;;;;21.80;100413.00;;;;5091755;28;20198;-81
2023/07/23 06:42:26;;;;;;;5.68;2.75;;;;;21.80;100409.00;;;;5109735;28;20572;-81
2023/07/23 06:44:53;;;;;;;7.75;2.60;;;;;21.80;100405.00;;;;5112012;28;20663;-81
2023/07/23 06:47:21;;;;;;;4.03;3.20;;;;;21.80;100407.00;;;;5110801;28;20201;-81
2023/07/23 06:49:49;;;;;;;6.88;2.88;;;;;21.80;100412.00;;;;5112108;28;20205;-81
2023/07/23 06:52:16;;;;;;;3.83;2.80;;;;;21.80;100417.00;;;;5091159;28;20234;-81
2023/07/23 06:54:44;;;;;;;3.92;2.13;;;;;21.80;100410.00;;;;5091689;28;20198;-81
2023/07/23 06:57:11;;;;;;;3.30;2.83;;;;;21.80;100420.00;;;;5090961;28;20221;-81
2023/07/23 06:59:38;;;;;;;3.33;2.33;;;;;21.70;100412.00;;;;5090212;28;20202;-80
2023/07/23 07:02:06;;;;;;;4.32;2.67;;;;;21.70;100421.00;;;;5097340;28;20197;-82
2023/07/23 07:04:33;;;;;;;4.28;2.80;;;;;21.70;100426.00;;;;5110765;28;20612;-81
2023/07/23 07:07:02;;;;;;;3.72;3.13;;;;;21.70;100403.00;;;;5109538;28;20236;-81
2023/07/23 07:09:29;;;;;;;4.88;3.45;;;;;21.70;100412.00;;;;5096667;28;20649;-81
2023/07/23 07:11:56;;;;;;;4.53;2.75;;;;;21.70;100410.00;;;;5111120;28;20217;-81
2023/07/23 07:14:25;;;;;;;5.45;3.10;;;;;21.60;100411.00;;;;5110597;28;20194;-80
2023/07/23 07:16:52;;;;;;;4.85;2.47;;;;;21.60;100406.00;;;;5110694;28;20205;-81
2023/07/23 07:19:19;;;;;;;4.53;3.25;;;;;21.60;100407.00;;;;5110702;28;20197;-80
2023/07/23 07:21:47;;;;;;;3.63;2.90;;;;;21.60;100406.00;;;;5110804;28;20201;-83
2023/07/23 07:24:15;;;;;;;2.75;2.33;;;;;21.60;100407.00;;;;5108005;28;20643;-81
2023/07/23 07:26:43;;;;;;;5.18;3.20;;;;;21.60;100399.00;;;;5090564;28;20198;-81
2023/07/23 07:29:10;;;;;;;8.82;3.30;;;;;21.60;100410.00;;;;5090426;28;20206;-81
2023/07/23 07:31:37;;;;;;;5.05;2.83;;;;;21.60;100406.00;;;;5089820;28;20198;-81
2023/07/23 07:34:04;;;;;;;5.45;2.92;;;;;21.60;100412.00;;;;5090375;28;20198;-81
2023/07/23 07:36:32;;;;;;;4.82;2.80;;;;;21.60;100407.00;;;;5088315;28;20205;-81
2023/07/23 07:38:59;;;;;;;3.60;2.35;;;;;21.60;100407.00;;;;5090446;28;20214;-81
2023/07/23 07:41:27;;;;;;;2.70;2.22;;;;;21.60;100408.00;;;;5099213;28;20201;-81
2023/07/23 07:43:55;;;;;;;5.03;3.15;;;;;21.60;100405.00;;;;5110991;28;20194;-83
2023/07/23 07:46:23;;;;;;;4.50;2.83;;;;;21.60;100407.00;;;;5109883;28;20224;-84
2023/07/23 07:48:50;;;;;;;5.38;3.30;;;;;21.60;100407.00;;;;5110083;28;20344;-80
2023/07/23 07:51:17;;;;;;;7.38;2.92;;;;;21.60;100401.00;;;;5110380;28;20197;-80
2023/07/23 07:53:44;;;;;;;5.60;3.05;;;;;21.60;100402.00;;;;5110399;28;20221;-81
2023/07/23 07:56:17;;;;;;;4.05;2.60;;;;;21.60;100407.00;;;;5109832;28;20568;-81
2023/07/23 07:58:46;;;;;;;6.20;3.22;;;;;21.50;100406.00;;;;5109147;28;20254;-81
2023/07/23 08:01:14;;;;;;;4.63;3.00;;;;;21.60;100405.00;;;;5111008;28;20564;-81
2023/07/23 08:03:42;;;;;;;3.75;2.80;;;;;21.60;100405.00;;;;5110203;28;20208;-81
2023/07/23 08:06:10;;;;;;;3.53;3.10;;;;;21.60;100404.00;;;;5109488;28;20236;-80
2023/07/23 08:08:39;;;;;;;3.63;2.63;;;;;21.60;100411.00;;;;5109970;28;20220;-80
2023/07/23 08:11:08;;;;;;;3.95;3.13;;;;;21.60;100410.00;;;;5109670;28;20193;-85
2023/07/23 08:13:37;;;;;;;2.83;2.53;;;;;21.60;100410.00;;;;5109020;28;20245;-83
2023/07/23 08:16:07;;;;;;;2.97;2.38;;;;;21.60;100410.00;;;;5099973;28;20206;-84
2023/07/23 08:18:35;;;;;;;3.50;2.63;;;;;21.70;100409.00;;;;5089707;28;20202;-83
2023/07/23 08:21:02;;;;;;;4.32;3.15;;;;;21.60;100402.00;;;;5088990;28;20302;-81
2023/07/23 08:23:30;;;;;;;2.92;2.50;;;;;21.60;100413.00;;;;5089022;28;20190;-80
2023/07/23 08:25:59;;;;;;;3.97;2.90;;;;;21.60;100405.00;;;;5090730;28;20241;-83
2023/07/23 08:28:29;;;;;;;4.20;2.72;;;;;21.60;100403.00;;;;5089956;28;20213;-83
2023/07/23 08:30:57;;;;;;;9.77;3.10;;;;;21.70;100405.00;;;;5089636;28;20202;-81
2023/07/23 08:33:28;;;;;;;3.30;2.80;;;;;21.60;100404.00;;;;5089103;28;20600;-83
2023/07/23 08:35:56;;;;;;;3.85;2.70;;;;;21.70;100409.00;;;;5089439;28;20202;-83
2023/07/23 08:38:24;;;;;;;5.80;2.90;;;;;21.70;100404.00;;;;5088677;28;20195;-81
2023/07/23 08:40:58;;;;;;;4.90;2.88;;;;;21.60;100408.00;;;;5094333;28;20202;-81
2023/07/23 08:44:11;;;;;;;5.50;2.55;;;;;21.60;100399.00;;;;5108620;28;20201;-81
2023/07/23 08:46:45;;;;;;;3.92;2.75;;;;;21.60;100412.00;;;;5108622;28;20547;-80
2023/07/23 08:49:17;;;;;;;4.55;2.53;;;;;21.70;100401.00;;;;5108690;28;20233;-81
2023/07/23 08:51:45;;;;;;;3.65;2.75;;;;;21.70;100403.00;;;;5108890;28;20198;-80
2023/07/23 08:54:15;;;;;;;4.10;3.30;;;;;21.80;100404.00;;;;5109714;28;20312;-81
2023/07/23 08:56:43;;;;;;;3.10;2.50;;;;;21.80;100409.00;;;;5109027;28;20208;-80
2023/07/23 08:59:11;;;;;;;3.65;2.75;;;;;21.80;100399.00;;;;5109203;28;20580;-80
2023/07/23 09:01:40;;;;;;;4.60;3.08;;;;;21.80;100400.00;;;;5107988;28;20228;-81
2023/07/23 09:04:09;;;;;;;2.90;2.28;;;;;21.80;100399.00;;;;5108496;28;20221;-81
2023/07/23 09:06:38;;;;;;;2.85;2.30;;;;;21.90;100409.00;;;;5107433;28;20233;-81
2023/07/23 09:09:06;;;;;;;5.30;3.03;;;;;21.90;100402.00;;;;5108719;28;20207;-81
2023/07/23 09:11:34;;;;;;;4.57;2.88;;;;;21.90;100397.00;;;;5107951;28;20571;-81
2023/07/23 09:14:03;;;;;;;5.07;2.70;;;;;21.90;100402.00;;;;5108171;28;20229;-83
2023/07/23 09:16:30;;;;;;;4.00;2.83;;;;;21.90;100405.00;;;;5108337;28;20212;-81
2023/07/23 09:18:57;;;;;;;2.75;2.22;;;;;22.00;100404.00;;;;5108392;28;20197;-82
2023/07/23 09:21:26;;;;;;;3.80;2.38;;;;;22.00;100398.00;;;;5108030;28;20551;-81
2023/07/23 09:23:56;;;;;;;3.15;2.30;;;;;22.00;100415.00;;;;5100140;28;20213;-79
2023/07/23 09:26:25;;;;;;;3.67;2.58;;;;;22.00;100414.00;;;;5087293;28;20290;-81
2023/07/23 09:28:53;;;;;;;3.17;2.72;;;;;22.00;100407.00;;;;5088325;28;20275;-80
2023/07/23 09:31:26;;;;;;;3.88;2.97;;;;;22.00;100406.00;;;;5088506;28;20535;-81
2023/07/23 09:33:55;;;;;;;4.20;2.63;;;;;22.00;100400.00;;;;5087041;28;20778;-81
2023/07/23 09:36:23;;;;;;;4.10;3.03;;;;;22.10;100412.00;;;;5088267;28;20203;-83
2023/07/23 09:38:56;;;;;;;3.78;2.92;;;;;22.00;100407.00;;;;5088390;28;20234;-80
2023/07/23 09:41:28;;;;;;;4.28;2.45;;;;;22.10;100412.00;;;;5098822;28;20212;-81
2023/07/23 09:43:55;;;;;;;3.55;2.75;;;;;22.10;100408.00;;;;5107872;28;20229;-81
2023/07/23 09:46:22;;;;;;;3.22;2.55;;;;;22.10;100409.00;;;;5107773;28;20196;-82
2023/07/23 09:48:51;;;;;;;3.03;2.40;;;;;22.20;100399.00;;;;5108621;28;20205;-80
2023/07/23 09:51:19;;;;;;;4.13;2.72;;;;;22.20;100402.00;;;;5107906;28;20205;-80
2023/07/23 09:53:46;;;;;;;3.38;2.70;;;;;22.30;100404.00;;;;5108038;28;20232;-80
2023/07/23 09:56:16;;;;;;;3.78;2.75;;;;;22.30;100405.00;;;;5107625;28;20623;-81
2023/07/23 09:58:46;;;;;;;4.47;2.90;;;;;22.30;100410.00;;;;5093144;28;20206;-80
2023/07/23 10:01:15;;;;;;;3.33;2.42;;;;;22.40;100407.00;;;;5092349;28;20194;-81
2023/07/23 10:03:43;;;;;;;2.80;2.40;;;;;22.40;100408.00;;;;5095803;28;20197;-81
2023/07/23 10:06:11;;;;;;;3.05;2.67;;;;;22.40;100414.00;;;;5112572;28;20237;-81
2023/07/23 10:08:43;;;;;;;3.38;2.42;;;;;22.40;100418.00;;;;5111819;28;20205;-81
2023/07/23 10:11:11;;;;;;;3.67;2.50;;;;;22.50;100416.00;;;;5112201;28;20201;-81
2023/07/23 10:13:41;;;;;;;3.13;2.10;;;;;22.50;100420.00;;;;5111702;28;20250;-83
2023/07/23 10:16:11;;;;;;;3.13;2.05;;;;;22.50;100417.00;;;;5093786;28;20224;-82
2023/07/23 10:18:41;;;;;;;2.47;2.00;;;;;22.50;100415.00;;;;5090749;28;20750;-81
2023/07/23 10:21:10;;;;;;;2.30;1.90;;;;;22.50;100419.00;;;;5091780;28;20632;-81
2023/07/23 10:23:40;;;;;;;3.33;2.00;;;;;22.50;100424.00;;;;5091010;28;20210;-81
2023/07/23 10:26:22;;;;;;;2.40;1.77;;;;;22.40;100422.00;;;;5091540;28;20220;-81
2023/07/23 10:28:52;;;;;;;1.88;1.60;;;;;22.50;100425.00;;;;5091622;28;20197;-80
2023/07/23 10:31:21;;;;;;;2.25;1.75;;;;;22.50;100422.00;;;;5092097;28;20569;-80
2023/07/23 10:33:50;;;;;;;2.20;1.70;;;;;22.60;100428.00;;;;5090810;28;20245;-81
2023/07/23 10:36:18;;;;;;;2.30;1.95;;;;;22.60;100430.00;;;;5090939;28;20723;-81
2023/07/23 10:38:46;;;;;;;2.85;1.67;;;;;22.60;100422.00;;;;5091799;28;20205;-80
2023/07/23 10:41:14;;;;;;;2.20;1.65;;;;;22.60;100431.00;;;;5102751;28;20202;-82
2023/07/23 10:43:46;;;;;;;2.22;1.85;;;;;22.60;100432.00;;;;5111867;28;20263;-81
2023/07/23 10:46:18;;;;;;;2.25;1.83;;;;;22.60;100421.00;;;;5111488;28;20277;-81
2023/07/23 10:48:48;;;;;;;2.08;1.80;;;;;22.60;100428.00;;;;5104359;28;20329;-82
2023/07/23 10:51:17;;;;;;;2.58;1.83;;;;;22.70;100429.00;;;;5091403;28;20224;-81
2023/07/23 10:53:55;;;;;;;2.72;2.17;;;;;22.60;100429.00;;;;5090443;28;20226;-81
2023/07/23 10:56:25;;;;;;;4.07;2.13;;;;;22.70;100435.00;;;;5090566;28;20194;-82
2023/07/23 10:58:55;;;;;;;3.03;2.40;;;;;22.70;100422.00;;;;5090959;28;20198;-81
2023/07/23 11:01:25;;;;;;;3.58;2.70;;;;;22.70;100429.00;;;;5090375;28;20209;-81
2023/07/23 11:03:57;;;;;;;3.25;2.60;;;;;22.70;100437.00;;;;5090815;28;20438;-81
2023/07/23 11:06:29;;;;;;;3.08;2.30;;;;;22.70;100429.00;;;;5091518;28;20218;-81
2023/07/23 11:08:58;;;;;;;3.28;2.47;;;;;22.80;100426.00;;;;5090797;28;20590;-82
2023/07/23 11:11:40;;;;;;;2.35;2.10;;;;;22.80;100428.00;;;;5109129;28;20204;-81
2023/07/23 11:14:21;;;;;;;3.30;2.53;;;;;22.80;100427.00;;;;5110898;28;20240;-80
2023/07/23 11:16:52;;;;;;;3.42;3.00;;;;;23.00;100433.00;;;;5110987;28;20205;-81
2023/07/23 11:19:20;;;;;;;2.97;2.55;;;;;23.00;100434.00;;;;5109987;28;20201;-81
2023/07/23 11:21:50;;;;;;;3.92;3.13;;;;;23.10;100425.00;;;;5110923;28;20670;-80
2023/07/23 11:24:18;;;;;;;3.22;2.80;;;;;23.10;100421.00;;;;5110549;28;20279;-81
2023/07/23 11:26:46;;;;;;;4.60;2.85;;;;;23.20;100436.00;;;;5111149;28;20278;-80
2023/07/23 11:29:14;;;;;;;3.03;2.53;;;;;23.20;100425.00;;;;5111057;28;20197;-81
2023/07/23 11:31:41;;;;;;;5.78;3.72;;;;;23.30;100419.00;;;;5110476;28;20295;-81
2023/07/23 11:34:10;;;;;;;3.13;2.72;;;;;23.30;100412.00;;;;5110524;28;20221;-80
2023/07/23 11:36:38;;;;;;;4.03;3.53;;;;;23.40;100410.00;;;;5110517;28;20204;-81
2023/07/23 11:39:07;;;;;;;3.42;2.72;;;;;23.40;100406.00;;;;5109288;28;20202;-80
2023/07/23 11:41:37;;;;;;;4.15;3.20;;;;;23.50;100407.00;;;;5104163;28;20201;-82
2023/07/23 11:44:05;;;;;;;3.95;3.17;;;;;23.60;100412.00;;;;5110026;28;20210;-81
2023/07/23 11:46:33;;;;;;;3.25;2.85;;;;;23.60;100419.00;;;;5110579;28;20202;-83
2023/07/23 11:49:02;;;;;;;3.42;3.00;;;;;23.60;100410.00;;;;5110873;28;20190;-82
2023/07/23 11:51:32;;;;;;;3.83;2.97;;;;;23.70;100415.00;;;;5110554;28;20290;-82
2023/07/23 11:54:07;;;;;;;3.28;2.85;;;;;23.70;100418.00;;;;5111255;28;20232;-81
2023/07/23 11:56:36;;;;;;;4.07;3.05;;;;;23.80;100432.00;;;;5104722;28;20201;-82
2023/07/23 11:59:04;;;;;;;4.35;3.30;;;;;23.90;100422.00;;;;5090902;28;20659;-83
2023/07/23 12:01:32;;;;;;;5.30;3.25;;;;;24.00;100416.00;;;;5089965;28;20190;-82
2023/07/23 12:04:03;;;;;;;3.35;2.97;;;;;24.00;100414.00;;;;5090622;28;20617;-82
2023/07/23 12:06:33;;;;;;;5.18;2.80;;;;;24.10;100408.00;;;;5089917;28;20236;-81
2023/07/23 12:09:01;;;;;;;5.20;3.40;;;;;24.20;100400.00;;;;5110511;28;20201;-82
2023/07/23 12:11:32;;;;;;;3.60;3.13;;;;;24.30;100406.00;;;;5109885;28;20213;-82
2023/07/23 12:14:02;;;;;;;3.97;3.28;;;;;24.40;100403.00;;;;5101428;28;20321;-82